sensor_id;sensor_type;location;lat;lon;timestamp;P1;durP1;ratioP1;P2;durP2;ratioP2
79533;SDS011;68982;52.160;6.736;2024-03-08T00:02:22;24.45;;;12.88;;
79533;SDS011;68982;52.160;6.736;2024-03-08T00:04:48;27.98;;;13.82;;
79533;SDS011;68982;52.160;6.736;2024-03-08T00:07:13;24.17;;;12.73;;
79533;SDS011;68982;52.160;6.736;2024-03-08T00:09:38;22.63;;;12.20;;
79533;SDS011;68982;52.160;6.736;2024-03-08T00:12:04;24.65;;;12.85;;
79533;SDS011;68982;52.160;6.736;2024-03-08T00:14:29;24.60;;;12.15;;
79533;SDS011;68982;52.160;6.736;2024-03-08T00:16:55;28.20;;;13.25;;
79533;SDS011;68982;52.160;6.736;2024-03-08T00:19:20;28.02;;;12.93;;
79533;SDS011;68982;52.160;6.736;2024-03-08T00:21:45;28.15;;;13.63;;
79533;SDS011;68982;52.160;6.736;2024-03-08T00:24:11;27.23;;;13.90;;
79533;SDS011;68982;52.160;6.736;2024-03-08T00:26:37;27.10;;;12.75;;
79533;SDS011;68982;52.160;6.736;2024-03-08T00:29:02;23.92;;;12.80;;
79533;SDS011;68982;52.160;6.736;2024-03-08T00:31:28;26.52;;;13.27;;
79533;SDS011;68982;52.160;6.736;2024-03-08T00:33:55;21.38;;;12.00;;
79533;SDS011;68982;52.160;6.736;2024-03-08T00:36:21;23.08;;;12.45;;
79533;SDS011;68982;52.160;6.736;2024-03-08T00:38:47;24.50;;;12.63;;
79533;SDS011;68982;52.160;6.736;2024-03-08T00:41:12;27.52;;;12.68;;
79533;SDS011;68982;52.160;6.736;2024-03-08T00:43:38;25.90;;;13.40;;
79533;SDS011;68982;52.160;6.736;2024-03-08T00:46:03;25.52;;;12.68;;
79533;SDS011;68982;52.160;6.736;2024-03-08T00:48:28;22.38;;;12.20;;
79533;SDS011;68982;52.160;6.736;2024-03-08T00:50:54;23.20;;;12.43;;
79533;SDS011;68982;52.160;6.736;2024-03-08T00:53:19;24.93;;;12.83;;
79533;SDS011;68982;52.160;6.736;2024-03-08T00:55:44;23.37;;;12.50;;
79533;SDS011;68982;52.160;6.736;2024-03-08T00:58:11;24.60;;;12.45;;
79533;SDS011;68982;52.160;6.736;2024-03-08T01:00:37;25.98;;;13.00;;
79533;SDS011;68982;52.160;6.736;2024-03-08T01:03:03;24.17;;;12.10;;
79533;SDS011;68982;52.160;6.736;2024-03-08T01:05:30;26.08;;;12.93;;
79533;SDS011;68982;52.160;6.736;2024-03-08T01:07:55;27.08;;;13.93;;
79533;SDS011;68982;52.160;6.736;2024-03-08T01:10:20;26.80;;;13.23;;
79533;SDS011;68982;52.160;6.736;2024-03-08T01:12:46;25.40;;;13.37;;
79533;SDS011;68982;52.160;6.736;2024-03-08T01:15:11;31.07;;;14.30;;
79533;SDS011;68982;52.160;6.736;2024-03-08T01:17:36;26.23;;;15.25;;
79533;SDS011;68982;52.160;6.736;2024-03-08T01:20:02;28.00;;;15.07;;
79533;SDS011;68982;52.160;6.736;2024-03-08T01:22:28;28.10;;;14.25;;
79533;SDS011;68982;52.160;6.736;2024-03-08T01:24:55;25.25;;;13.48;;
79533;SDS011;68982;52.160;6.736;2024-03-08T01:27:20;26.58;;;13.75;;
79533;SDS011;68982;52.160;6.736;2024-03-08T01:29:46;27.45;;;13.77;;
79533;SDS011;68982;52.160;6.736;2024-03-08T01:32:11;23.95;;;12.50;;
79533;SDS011;68982;52.160;6.736;2024-03-08T01:34:37;28.27;;;12.82;;
79533;SDS011;68982;52.160;6.736;2024-03-08T01:37:02;26.40;;;13.30;;
79533;SDS011;68982;52.160;6.736;2024-03-08T01:39:27;24.95;;;13.30;;
79533;SDS011;68982;52.160;6.736;2024-03-08T01:41:53;25.20;;;12.63;;
79533;SDS011;68982;52.160;6.736;2024-03-08T01:44:19;24.85;;;12.80;;
79533;SDS011;68982;52.160;6.736;2024-03-08T01:46:45;24.65;;;12.88;;
79533;SDS011;68982;52.160;6.736;2024-03-08T01:49:11;27.90;;;13.15;;
79533;SDS011;68982;52.160;6.736;2024-03-08T01:51:38;24.67;;;14.80;;
79533;SDS011;68982;52.160;6.736;2024-03-08T01:54:06;25.63;;;13.13;;
79533;SDS011;68982;52.160;6.736;2024-03-08T01:56:32;27.00;;;13.15;;
79533;SDS011;68982;52.160;6.736;2024-03-08T01:58:58;25.27;;;13.48;;
79533;SDS011;68982;52.160;6.736;2024-03-08T02:01:24;28.30;;;12.75;;
79533;SDS011;68982;52.160;6.736;2024-03-08T02:03:50;22.75;;;13.00;;
79533;SDS011;68982;52.160;6.736;2024-03-08T02:06:16;24.98;;;13.25;;
79533;SDS011;68982;52.160;6.736;2024-03-08T02:08:42;25.80;;;12.75;;
79533;SDS011;68982;52.160;6.736;2024-03-08T02:11:09;24.52;;;13.02;;
79533;SDS011;68982;52.160;6.736;2024-03-08T02:13:35;23.85;;;12.80;;
79533;SDS011;68982;52.160;6.736;2024-03-08T02:16:01;25.58;;;13.55;;
79533;SDS011;68982;52.160;6.736;2024-03-08T02:18:27;27.92;;;13.40;;
79533;SDS011;68982;52.160;6.736;2024-03-08T02:20:56;25.10;;;13.18;;
79533;SDS011;68982;52.160;6.736;2024-03-08T02:23:26;25.58;;;12.82;;
79533;SDS011;68982;52.160;6.736;2024-03-08T02:25:51;25.83;;;12.43;;
79533;SDS011;68982;52.160;6.736;2024-03-08T02:28:18;25.67;;;13.45;;
79533;SDS011;68982;52.160;6.736;2024-03-08T02:30:44;26.17;;;12.98;;
79533;SDS011;68982;52.160;6.736;2024-03-08T02:33:12;25.73;;;13.85;;
79533;SDS011;68982;52.160;6.736;2024-03-08T02:35:38;30.40;;;14.63;;
79533;SDS011;68982;52.160;6.736;2024-03-08T02:38:04;25.67;;;13.48;;
79533;SDS011;68982;52.160;6.736;2024-03-08T02:40:30;29.02;;;14.00;;
79533;SDS011;68982;52.160;6.736;2024-03-08T02:42:55;26.13;;;13.35;;
79533;SDS011;68982;52.160;6.736;2024-03-08T02:45:21;27.43;;;14.07;;
79533;SDS011;68982;52.160;6.736;2024-03-08T02:47:46;25.98;;;14.13;;
79533;SDS011;68982;52.160;6.736;2024-03-08T02:50:14;31.70;;;13.45;;
79533;SDS011;68982;52.160;6.736;2024-03-08T02:52:41;26.48;;;14.20;;
79533;SDS011;68982;52.160;6.736;2024-03-08T02:55:07;26.02;;;13.52;;
79533;SDS011;68982;52.160;6.736;2024-03-08T02:57:33;24.08;;;13.43;;
79533;SDS011;68982;52.160;6.736;2024-03-08T02:59:58;23.70;;;13.02;;
79533;SDS011;68982;52.160;6.736;2024-03-08T03:02:24;27.05;;;12.90;;
79533;SDS011;68982;52.160;6.736;2024-03-08T03:04:51;27.33;;;13.93;;
79533;SDS011;68982;52.160;6.736;2024-03-08T03:07:17;28.00;;;13.73;;
79533;SDS011;68982;52.160;6.736;2024-03-08T03:09:42;29.85;;;13.43;;
79533;SDS011;68982;52.160;6.736;2024-03-08T03:12:07;25.03;;;13.33;;
79533;SDS011;68982;52.160;6.736;2024-03-08T03:14:35;24.83;;;13.63;;
79533;SDS011;68982;52.160;6.736;2024-03-08T03:17:03;25.85;;;12.85;;
79533;SDS011;68982;52.160;6.736;2024-03-08T03:19:29;26.90;;;13.85;;
79533;SDS011;68982;52.160;6.736;2024-03-08T03:21:55;29.05;;;14.32;;
79533;SDS011;68982;52.160;6.736;2024-03-08T03:24:20;27.13;;;13.63;;
79533;SDS011;68982;52.160;6.736;2024-03-08T03:26:46;27.15;;;13.05;;
79533;SDS011;68982;52.160;6.736;2024-03-08T03:29:13;25.10;;;13.65;;
79533;SDS011;68982;52.160;6.736;2024-03-08T03:31:40;24.13;;;13.50;;
79533;SDS011;68982;52.160;6.736;2024-03-08T03:34:06;25.42;;;13.60;;
79533;SDS011;68982;52.160;6.736;2024-03-08T03:36:33;25.63;;;13.60;;
79533;SDS011;68982;52.160;6.736;2024-03-08T03:39:00;27.52;;;14.10;;
79533;SDS011;68982;52.160;6.736;2024-03-08T03:41:41;24.60;;;13.60;;
79533;SDS011;68982;52.160;6.736;2024-03-08T03:44:07;27.60;;;13.90;;
79533;SDS011;68982;52.160;6.736;2024-03-08T03:46:32;28.15;;;13.88;;
79533;SDS011;68982;52.160;6.736;2024-03-08T03:48:58;31.02;;;15.43;;
79533;SDS011;68982;52.160;6.736;2024-03-08T03:51:24;27.35;;;13.35;;
79533;SDS011;68982;52.160;6.736;2024-03-08T03:53:49;25.27;;;13.70;;
79533;SDS011;68982;52.160;6.736;2024-03-08T03:56:14;30.98;;;14.50;;
79533;SDS011;68982;52.160;6.736;2024-03-08T03:58:40;27.63;;;13.57;;
79533;SDS011;68982;52.160;6.736;2024-03-08T04:01:05;27.38;;;14.02;;
79533;SDS011;68982;52.160;6.736;2024-03-08T04:03:30;27.17;;;14.32;;
79533;SDS011;68982;52.160;6.736;2024-03-08T04:05:56;26.15;;;13.30;;
79533;SDS011;68982;52.160;6.736;2024-03-08T04:08:21;26.90;;;13.15;;
79533;SDS011;68982;52.160;6.736;2024-03-08T04:10:48;28.27;;;14.85;;
79533;SDS011;68982;52.160;6.736;2024-03-08T04:13:14;27.52;;;14.07;;
79533;SDS011;68982;52.160;6.736;2024-03-08T04:15:40;30.38;;;14.63;;
79533;SDS011;68982;52.160;6.736;2024-03-08T04:18:08;28.90;;;14.13;;
79533;SDS011;68982;52.160;6.736;2024-03-08T04:20:33;26.63;;;13.77;;
79533;SDS011;68982;52.160;6.736;2024-03-08T04:22:59;27.60;;;14.13;;
79533;SDS011;68982;52.160;6.736;2024-03-08T04:25:24;25.65;;;13.40;;
79533;SDS011;68982;52.160;6.736;2024-03-08T04:27:49;29.57;;;13.90;;
79533;SDS011;68982;52.160;6.736;2024-03-08T04:30:17;28.45;;;14.32;;
79533;SDS011;68982;52.160;6.736;2024-03-08T04:32:42;25.98;;;14.10;;
79533;SDS011;68982;52.160;6.736;2024-03-08T04:35:09;29.92;;;14.35;;
79533;SDS011;68982;52.160;6.736;2024-03-08T04:37:34;26.90;;;13.77;;
79533;SDS011;68982;52.160;6.736;2024-03-08T04:39:59;31.00;;;14.67;;
79533;SDS011;68982;52.160;6.736;2024-03-08T04:42:25;27.27;;;13.63;;
79533;SDS011;68982;52.160;6.736;2024-03-08T04:44:52;28.38;;;14.38;;
79533;SDS011;68982;52.160;6.736;2024-03-08T04:47:18;24.73;;;13.52;;
79533;SDS011;68982;52.160;6.736;2024-03-08T04:49:44;32.00;;;14.30;;
79533;SDS011;68982;52.160;6.736;2024-03-08T04:52:09;29.67;;;14.98;;
79533;SDS011;68982;52.160;6.736;2024-03-08T04:54:35;28.08;;;15.88;;
79533;SDS011;68982;52.160;6.736;2024-03-08T04:57:00;29.80;;;14.57;;
79533;SDS011;68982;52.160;6.736;2024-03-08T04:59:28;25.80;;;14.13;;
79533;SDS011;68982;52.160;6.736;2024-03-08T05:01:54;27.63;;;15.07;;
79533;SDS011;68982;52.160;6.736;2024-03-08T05:04:20;25.65;;;14.32;;
79533;SDS011;68982;52.160;6.736;2024-03-08T05:06:45;30.20;;;15.70;;
79533;SDS011;68982;52.160;6.736;2024-03-08T05:09:11;27.77;;;14.38;;
79533;SDS011;68982;52.160;6.736;2024-03-08T05:11:40;30.80;;;15.63;;
79533;SDS011;68982;52.160;6.736;2024-03-08T05:14:06;32.22;;;16.80;;
79533;SDS011;68982;52.160;6.736;2024-03-08T05:16:31;30.25;;;15.55;;
79533;SDS011;68982;52.160;6.736;2024-03-08T05:18:57;29.83;;;15.50;;
79533;SDS011;68982;52.160;6.736;2024-03-08T05:21:22;30.08;;;15.32;;
79533;SDS011;68982;52.160;6.736;2024-03-08T05:23:48;27.83;;;14.50;;
79533;SDS011;68982;52.160;6.736;2024-03-08T05:26:15;31.85;;;15.25;;
79533;SDS011;68982;52.160;6.736;2024-03-08T05:28:40;31.17;;;15.50;;
79533;SDS011;68982;52.160;6.736;2024-03-08T05:31:06;29.87;;;14.60;;
79533;SDS011;68982;52.160;6.736;2024-03-08T05:33:31;29.60;;;14.93;;
79533;SDS011;68982;52.160;6.736;2024-03-08T05:35:59;35.72;;;16.45;;
79533;SDS011;68982;52.160;6.736;2024-03-08T05:38:25;30.48;;;15.25;;
79533;SDS011;68982;52.160;6.736;2024-03-08T05:40:51;30.27;;;15.52;;
79533;SDS011;68982;52.160;6.736;2024-03-08T05:43:16;27.45;;;14.55;;
79533;SDS011;68982;52.160;6.736;2024-03-08T05:45:44;29.85;;;14.95;;
79533;SDS011;68982;52.160;6.736;2024-03-08T05:48:10;33.53;;;16.65;;
79533;SDS011;68982;52.160;6.736;2024-03-08T05:50:37;31.38;;;15.82;;
79533;SDS011;68982;52.160;6.736;2024-03-08T05:53:03;36.30;;;16.40;;
79533;SDS011;68982;52.160;6.736;2024-03-08T05:55:31;30.33;;;14.80;;
79533;SDS011;68982;52.160;6.736;2024-03-08T05:58:00;34.35;;;17.58;;
79533;SDS011;68982;52.160;6.736;2024-03-08T06:00:26;31.30;;;16.33;;
79533;SDS011;68982;52.160;6.736;2024-03-08T06:02:52;33.55;;;16.77;;
79533;SDS011;68982;52.160;6.736;2024-03-08T06:05:17;32.30;;;15.80;;
79533;SDS011;68982;52.160;6.736;2024-03-08T06:07:43;34.55;;;17.00;;
79533;SDS011;68982;52.160;6.736;2024-03-08T06:10:09;30.33;;;15.55;;
79533;SDS011;68982;52.160;6.736;2024-03-08T06:12:35;29.80;;;15.10;;
79533;SDS011;68982;52.160;6.736;2024-03-08T06:15:05;32.30;;;17.65;;
79533;SDS011;68982;52.160;6.736;2024-03-08T06:17:31;32.08;;;16.25;;
79533;SDS011;68982;52.160;6.736;2024-03-08T06:19:57;33.27;;;17.17;;
79533;SDS011;68982;52.160;6.736;2024-03-08T06:22:22;30.63;;;16.13;;
79533;SDS011;68982;52.160;6.736;2024-03-08T06:24:47;32.90;;;16.03;;
79533;SDS011;68982;52.160;6.736;2024-03-08T06:27:12;33.10;;;15.33;;
79533;SDS011;68982;52.160;6.736;2024-03-08T06:29:39;39.33;;;16.95;;
79533;SDS011;68982;52.160;6.736;2024-03-08T06:32:04;32.08;;;15.85;;
79533;SDS011;68982;52.160;6.736;2024-03-08T06:34:32;31.40;;;15.88;;
79533;SDS011;68982;52.160;6.736;2024-03-08T06:36:59;33.38;;;15.98;;
79533;SDS011;68982;52.160;6.736;2024-03-08T06:39:26;31.27;;;16.05;;
79533;SDS011;68982;52.160;6.736;2024-03-08T06:41:51;32.70;;;16.42;;
79533;SDS011;68982;52.160;6.736;2024-03-08T06:44:16;32.80;;;15.60;;
79533;SDS011;68982;52.160;6.736;2024-03-08T06:46:42;32.43;;;14.77;;
79533;SDS011;68982;52.160;6.736;2024-03-08T06:49:07;32.78;;;15.65;;
79533;SDS011;68982;52.160;6.736;2024-03-08T06:51:34;33.22;;;16.77;;
79533;SDS011;68982;52.160;6.736;2024-03-08T06:53:59;32.00;;;15.98;;
79533;SDS011;68982;52.160;6.736;2024-03-08T06:56:25;34.97;;;15.90;;
79533;SDS011;68982;52.160;6.736;2024-03-08T06:58:50;30.73;;;16.10;;
79533;SDS011;68982;52.160;6.736;2024-03-08T07:01:16;29.90;;;17.15;;
79533;SDS011;68982;52.160;6.736;2024-03-08T07:03:42;33.88;;;17.40;;
79533;SDS011;68982;52.160;6.736;2024-03-08T07:06:09;32.28;;;15.55;;
79533;SDS011;68982;52.160;6.736;2024-03-08T07:08:35;34.63;;;16.52;;
79533;SDS011;68982;52.160;6.736;2024-03-08T07:11:01;31.15;;;15.90;;
79533;SDS011;68982;52.160;6.736;2024-03-08T07:13:26;31.73;;;16.50;;
79533;SDS011;68982;52.160;6.736;2024-03-08T07:15:55;33.15;;;15.32;;
79533;SDS011;68982;52.160;6.736;2024-03-08T07:18:20;30.75;;;15.60;;
79533;SDS011;68982;52.160;6.736;2024-03-08T07:20:47;37.30;;;18.05;;
79533;SDS011;68982;52.160;6.736;2024-03-08T07:23:12;31.40;;;14.35;;
79533;SDS011;68982;52.160;6.736;2024-03-08T07:25:57;36.15;;;16.15;;
79533;SDS011;68982;52.160;6.736;2024-03-08T07:28:23;31.27;;;15.55;;
79533;SDS011;68982;52.160;6.736;2024-03-08T07:30:48;32.40;;;16.45;;
79533;SDS011;68982;52.160;6.736;2024-03-08T07:33:14;31.40;;;14.55;;
79533;SDS011;68982;52.160;6.736;2024-03-08T07:35:39;30.88;;;17.77;;
79533;SDS011;68982;52.160;6.736;2024-03-08T07:38:05;36.83;;;16.48;;
79533;SDS011;68982;52.160;6.736;2024-03-08T07:40:35;35.75;;;16.83;;
79533;SDS011;68982;52.160;6.736;2024-03-08T07:43:01;29.55;;;14.00;;
79533;SDS011;68982;52.160;6.736;2024-03-08T07:45:27;30.23;;;15.65;;
79533;SDS011;68982;52.160;6.736;2024-03-08T07:47:52;31.30;;;15.75;;
79533;SDS011;68982;52.160;6.736;2024-03-08T07:50:18;31.63;;;16.50;;
79533;SDS011;68982;52.160;6.736;2024-03-08T07:52:44;35.60;;;16.83;;
79533;SDS011;68982;52.160;6.736;2024-03-08T07:55:10;32.60;;;15.98;;
79533;SDS011;68982;52.160;6.736;2024-03-08T07:57:35;33.70;;;15.70;;
79533;SDS011;68982;52.160;6.736;2024-03-08T08:00:03;30.15;;;15.27;;
79533;SDS011;68982;52.160;6.736;2024-03-08T08:02:32;32.17;;;15.88;;
79533;SDS011;68982;52.160;6.736;2024-03-08T08:04:58;35.42;;;18.88;;
79533;SDS011;68982;52.160;6.736;2024-03-08T08:07:24;32.30;;;15.15;;
79533;SDS011;68982;52.160;6.736;2024-03-08T08:09:49;31.95;;;16.45;;
79533;SDS011;68982;52.160;6.736;2024-03-08T08:12:14;33.97;;;16.60;;
79533;SDS011;68982;52.160;6.736;2024-03-08T08:14:41;32.60;;;17.35;;
79533;SDS011;68982;52.160;6.736;2024-03-08T08:17:06;31.17;;;16.10;;
79533;SDS011;68982;52.160;6.736;2024-03-08T08:19:33;29.58;;;15.77;;
79533;SDS011;68982;52.160;6.736;2024-03-08T08:22:00;30.23;;;16.20;;
79533;SDS011;68982;52.160;6.736;2024-03-08T08:24:27;34.08;;;17.02;;
79533;SDS011;68982;52.160;6.736;2024-03-08T08:26:53;31.17;;;16.50;;
79533;SDS011;68982;52.160;6.736;2024-03-08T08:29:18;30.40;;;15.77;;
79533;SDS011;68982;52.160;6.736;2024-03-08T08:31:43;32.58;;;16.70;;
79533;SDS011;68982;52.160;6.736;2024-03-08T08:34:09;31.80;;;16.83;;
79533;SDS011;68982;52.160;6.736;2024-03-08T08:36:36;28.50;;;16.60;;
79533;SDS011;68982;52.160;6.736;2024-03-08T08:39:02;30.52;;;16.77;;
79533;SDS011;68982;52.160;6.736;2024-03-08T08:41:28;32.15;;;19.30;;
79533;SDS011;68982;52.160;6.736;2024-03-08T08:43:54;30.73;;;16.77;;
79533;SDS011;68982;52.160;6.736;2024-03-08T08:46:19;29.00;;;15.38;;
79533;SDS011;68982;52.160;6.736;2024-03-08T08:48:46;32.70;;;17.23;;
79533;SDS011;68982;52.160;6.736;2024-03-08T08:51:12;27.25;;;15.82;;
79533;SDS011;68982;52.160;6.736;2024-03-08T08:53:38;29.70;;;16.33;;
79533;SDS011;68982;52.160;6.736;2024-03-08T08:56:05;32.15;;;17.35;;
79533;SDS011;68982;52.160;6.736;2024-03-08T08:58:32;27.05;;;15.70;;
79533;SDS011;68982;52.160;6.736;2024-03-08T09:00:58;28.55;;;16.50;;
79533;SDS011;68982;52.160;6.736;2024-03-08T09:03:24;28.95;;;16.33;;
79533;SDS011;68982;52.160;6.736;2024-03-08T09:05:50;33.45;;;16.88;;
79533;SDS011;68982;52.160;6.736;2024-03-08T09:08:15;31.13;;;17.02;;
79533;SDS011;68982;52.160;6.736;2024-03-08T09:10:40;31.20;;;19.50;;
79533;SDS011;68982;52.160;6.736;2024-03-08T09:13:06;30.85;;;16.17;;
79533;SDS011;68982;52.160;6.736;2024-03-08T09:15:31;30.73;;;17.35;;
79533;SDS011;68982;52.160;6.736;2024-03-08T09:17:56;29.87;;;16.63;;
79533;SDS011;68982;52.160;6.736;2024-03-08T09:20:22;29.67;;;15.88;;
79533;SDS011;68982;52.160;6.736;2024-03-08T09:22:47;31.33;;;16.80;;
79533;SDS011;68982;52.160;6.736;2024-03-08T09:25:13;29.30;;;16.73;;
79533;SDS011;68982;52.160;6.736;2024-03-08T09:27:38;29.48;;;16.63;;
79533;SDS011;68982;52.160;6.736;2024-03-08T09:30:04;28.90;;;16.08;;
79533;SDS011;68982;52.160;6.736;2024-03-08T09:32:31;30.88;;;16.23;;
79533;SDS011;68982;52.160;6.736;2024-03-08T09:34:57;28.43;;;16.17;;
79533;SDS011;68982;52.160;6.736;2024-03-08T09:37:22;29.65;;;16.40;;
79533;SDS011;68982;52.160;6.736;2024-03-08T09:39:48;28.52;;;16.83;;
79533;SDS011;68982;52.160;6.736;2024-03-08T09:42:13;30.50;;;17.10;;
79533;SDS011;68982;52.160;6.736;2024-03-08T09:44:44;30.30;;;18.30;;
79533;SDS011;68982;52.160;6.736;2024-03-08T09:47:11;28.40;;;17.35;;
79533;SDS011;68982;52.160;6.736;2024-03-08T09:49:39;30.33;;;17.40;;
79533;SDS011;68982;52.160;6.736;2024-03-08T09:52:05;29.63;;;15.95;;
79533;SDS011;68982;52.160;6.736;2024-03-08T09:54:31;29.67;;;16.45;;
79533;SDS011;68982;52.160;6.736;2024-03-08T09:56:56;28.42;;;16.38;;
79533;SDS011;68982;52.160;6.736;2024-03-08T09:59:22;37.03;;;17.00;;
79533;SDS011;68982;52.160;6.736;2024-03-08T10:01:47;33.28;;;18.63;;
79533;SDS011;68982;52.160;6.736;2024-03-08T10:04:13;28.40;;;17.93;;
79533;SDS011;68982;52.160;6.736;2024-03-08T10:06:39;35.17;;;20.00;;
79533;SDS011;68982;52.160;6.736;2024-03-08T10:09:04;39.38;;;24.02;;
79533;SDS011;68982;52.160;6.736;2024-03-08T10:11:32;39.47;;;25.83;;
79533;SDS011;68982;52.160;6.736;2024-03-08T10:13:58;29.80;;;17.48;;
79533;SDS011;68982;52.160;6.736;2024-03-08T10:16:26;32.10;;;18.92;;
79533;SDS011;68982;52.160;6.736;2024-03-08T10:18:52;30.90;;;19.05;;
79533;SDS011;68982;52.160;6.736;2024-03-08T10:21:18;31.40;;;18.20;;
79533;SDS011;68982;52.160;6.736;2024-03-08T10:23:44;31.13;;;20.60;;
79533;SDS011;68982;52.160;6.736;2024-03-08T10:26:12;38.38;;;24.25;;
79533;SDS011;68982;52.160;6.736;2024-03-08T10:28:40;33.92;;;19.83;;
79533;SDS011;68982;52.160;6.736;2024-03-08T10:31:06;34.90;;;20.95;;
79533;SDS011;68982;52.160;6.736;2024-03-08T10:33:31;38.00;;;23.90;;
79533;SDS011;68982;52.160;6.736;2024-03-08T10:35:58;35.83;;;22.58;;
79533;SDS011;68982;52.160;6.736;2024-03-08T10:38:24;32.80;;;21.10;;
79533;SDS011;68982;52.160;6.736;2024-03-08T10:40:53;27.90;;;16.83;;
79533;SDS011;68982;52.160;6.736;2024-03-08T10:43:24;31.88;;;19.63;;
79533;SDS011;68982;52.160;6.736;2024-03-08T10:48:31;28.60;;;18.35;;
79533;SDS011;68982;52.160;6.736;2024-03-08T10:50:57;26.38;;;16.73;;
79533;SDS011;68982;52.160;6.736;2024-03-08T10:53:26;29.73;;;20.63;;
79533;SDS011;68982;52.160;6.736;2024-03-08T10:55:53;34.17;;;20.15;;
79533;SDS011;68982;52.160;6.736;2024-03-08T10:58:19;29.10;;;16.65;;
79533;SDS011;68982;52.160;6.736;2024-03-08T11:00:47;29.25;;;17.58;;
79533;SDS011;68982;52.160;6.736;2024-03-08T11:06:05;28.77;;;17.40;;
79533;SDS011;68982;52.160;6.736;2024-03-08T11:08:36;28.80;;;17.92;;
79533;SDS011;68982;52.160;6.736;2024-03-08T11:11:03;31.65;;;20.35;;
79533;SDS011;68982;52.160;6.736;2024-03-08T11:13:35;31.77;;;18.52;;
79533;SDS011;68982;52.160;6.736;2024-03-08T11:16:11;25.98;;;17.00;;
79533;SDS011;68982;52.160;6.736;2024-03-08T11:18:54;26.20;;;16.33;;
79533;SDS011;68982;52.160;6.736;2024-03-08T11:21:25;25.25;;;16.17;;
79533;SDS011;68982;52.160;6.736;2024-03-08T11:24:01;25.65;;;15.88;;
79533;SDS011;68982;52.160;6.736;2024-03-08T11:26:41;30.88;;;21.10;;
79533;SDS011;68982;52.160;6.736;2024-03-08T11:32:10;20.50;;;14.00;;
79533;SDS011;68982;52.160;6.736;2024-03-08T11:34:47;24.02;;;15.23;;
79533;SDS011;68982;52.160;6.736;2024-03-08T11:37:15;23.27;;;14.95;;
79533;SDS011;68982;52.160;6.736;2024-03-08T11:39:49;22.80;;;14.75;;
79533;SDS011;68982;52.160;6.736;2024-03-08T11:42:15;23.85;;;15.00;;
79533;SDS011;68982;52.160;6.736;2024-03-08T11:44:42;23.35;;;15.18;;
79533;SDS011;68982;52.160;6.736;2024-03-08T11:47:09;22.45;;;14.77;;
79533;SDS011;68982;52.160;6.736;2024-03-08T11:49:36;21.95;;;14.15;;
79533;SDS011;68982;52.160;6.736;2024-03-08T11:52:01;25.05;;;15.60;;
79533;SDS011;68982;52.160;6.736;2024-03-08T11:54:27;24.13;;;14.88;;
79533;SDS011;68982;52.160;6.736;2024-03-08T11:56:54;30.90;;;20.00;;
79533;SDS011;68982;52.160;6.736;2024-03-08T11:59:25;28.23;;;18.77;;
79533;SDS011;68982;52.160;6.736;2024-03-08T12:02:01;23.98;;;15.63;;
79533;SDS011;68982;52.160;6.736;2024-03-08T12:04:28;25.42;;;16.08;;
79533;SDS011;68982;52.160;6.736;2024-03-08T12:06:54;25.50;;;17.42;;
79533;SDS011;68982;52.160;6.736;2024-03-08T12:09:19;25.80;;;16.80;;
79533;SDS011;68982;52.160;6.736;2024-03-08T12:11:47;24.95;;;16.17;;
79533;SDS011;68982;52.160;6.736;2024-03-08T12:14:13;25.48;;;15.90;;
79533;SDS011;68982;52.160;6.736;2024-03-08T12:16:39;25.38;;;17.13;;
79533;SDS011;68982;52.160;6.736;2024-03-08T12:19:06;25.73;;;15.95;;
79533;SDS011;68982;52.160;6.736;2024-03-08T12:21:32;24.17;;;14.70;;
79533;SDS011;68982;52.160;6.736;2024-03-08T12:24:07;22.08;;;13.48;;
79533;SDS011;68982;52.160;6.736;2024-03-08T12:26:35;24.40;;;15.20;;
79533;SDS011;68982;52.160;6.736;2024-03-08T12:31:53;25.98;;;15.02;;
79533;SDS011;68982;52.160;6.736;2024-03-08T12:34:25;23.98;;;13.70;;
79533;SDS011;68982;52.160;6.736;2024-03-08T12:36:52;22.27;;;13.68;;
79533;SDS011;68982;52.160;6.736;2024-03-08T12:39:18;20.83;;;14.02;;
79533;SDS011;68982;52.160;6.736;2024-03-08T12:41:51;23.38;;;13.38;;
79533;SDS011;68982;52.160;6.736;2024-03-08T12:44:18;26.35;;;13.80;;
79533;SDS011;68982;52.160;6.736;2024-03-08T12:46:46;22.77;;;14.27;;
79533;SDS011;68982;52.160;6.736;2024-03-08T12:49:13;19.60;;;12.82;;
79533;SDS011;68982;52.160;6.736;2024-03-08T12:51:42;20.80;;;12.57;;
79533;SDS011;68982;52.160;6.736;2024-03-08T12:54:08;21.13;;;13.35;;
79533;SDS011;68982;52.160;6.736;2024-03-08T12:56:34;20.30;;;13.27;;
79533;SDS011;68982;52.160;6.736;2024-03-08T12:59:02;20.63;;;13.70;;
79533;SDS011;68982;52.160;6.736;2024-03-08T13:01:28;16.98;;;11.05;;
79533;SDS011;68982;52.160;6.736;2024-03-08T13:03:54;23.20;;;11.23;;
79533;SDS011;68982;52.160;6.736;2024-03-08T13:06:23;17.80;;;11.65;;
79533;SDS011;68982;52.160;6.736;2024-03-08T13:08:49;20.63;;;12.10;;
79533;SDS011;68982;52.160;6.736;2024-03-08T13:11:16;18.13;;;12.05;;
79533;SDS011;68982;52.160;6.736;2024-03-08T13:13:42;19.65;;;12.00;;
79533;SDS011;68982;52.160;6.736;2024-03-08T13:16:08;19.50;;;12.38;;
79533;SDS011;68982;52.160;6.736;2024-03-08T13:18:34;16.75;;;11.55;;
79533;SDS011;68982;52.160;6.736;2024-03-08T13:20:59;18.20;;;11.35;;
79533;SDS011;68982;52.160;6.736;2024-03-08T13:23:29;19.60;;;13.30;;
79533;SDS011;68982;52.160;6.736;2024-03-08T13:25:55;17.10;;;11.38;;
79533;SDS011;68982;52.160;6.736;2024-03-08T13:28:22;17.20;;;11.20;;
79533;SDS011;68982;52.160;6.736;2024-03-08T13:30:52;17.05;;;11.65;;
79533;SDS011;68982;52.160;6.736;2024-03-08T13:33:18;19.95;;;11.85;;
79533;SDS011;68982;52.160;6.736;2024-03-08T13:35:44;18.83;;;11.38;;
79533;SDS011;68982;52.160;6.736;2024-03-08T13:38:09;17.85;;;10.75;;
79533;SDS011;68982;52.160;6.736;2024-03-08T13:40:38;20.00;;;11.63;;
79533;SDS011;68982;52.160;6.736;2024-03-08T13:43:05;18.02;;;10.73;;
79533;SDS011;68982;52.160;6.736;2024-03-08T13:45:32;17.23;;;11.27;;
79533;SDS011;68982;52.160;6.736;2024-03-08T13:47:58;18.50;;;10.38;;
79533;SDS011;68982;52.160;6.736;2024-03-08T13:50:24;17.60;;;11.38;;
79533;SDS011;68982;52.160;6.736;2024-03-08T13:55:18;16.80;;;10.30;;
79533;SDS011;68982;52.160;6.736;2024-03-08T13:57:44;16.23;;;10.05;;
79533;SDS011;68982;52.160;6.736;2024-03-08T14:00:12;18.90;;;10.82;;
79533;SDS011;68982;52.160;6.736;2024-03-08T14:02:38;18.15;;;10.93;;
79533;SDS011;68982;52.160;6.736;2024-03-08T14:07:35;18.25;;;10.88;;
79533;SDS011;68982;52.160;6.736;2024-03-08T14:10:00;16.77;;;10.25;;
79533;SDS011;68982;52.160;6.736;2024-03-08T14:12:26;16.05;;;10.25;;
79533;SDS011;68982;52.160;6.736;2024-03-08T14:14:52;16.88;;;10.68;;
79533;SDS011;68982;52.160;6.736;2024-03-08T14:17:18;16.27;;;10.23;;
79533;SDS011;68982;52.160;6.736;2024-03-08T14:19:43;17.10;;;10.50;;
79533;SDS011;68982;52.160;6.736;2024-03-08T14:22:08;16.23;;;10.55;;
79533;SDS011;68982;52.160;6.736;2024-03-08T14:24:38;17.98;;;11.40;;
79533;SDS011;68982;52.160;6.736;2024-03-08T14:27:04;18.92;;;11.35;;
79533;SDS011;68982;52.160;6.736;2024-03-08T14:29:29;16.63;;;10.75;;
79533;SDS011;68982;52.160;6.736;2024-03-08T14:31:57;18.73;;;11.55;;
79533;SDS011;68982;52.160;6.736;2024-03-08T14:34:26;17.17;;;10.93;;